Aviation Digital Data Service (ADDS)

Output produced by METARs form (1045 UTC 22 January 2022)
found at http://aviationweather.gov/metar/data/
 
METAR text: KCAG 220953Z AUTO 08003KT 1/4SM FZFG VV002 M08/M10 A3029 RMK AO2 SLP304 T10831100
Conditions at: KCAG (CRAIG , CO, US) observed 0953 UTC 22 January 2022
Temperature: -8.3°C (17°F)
Dewpoint: -10.0°C (14°F) [RH = 88%]
Pressure (altimeter): 30.29 inches Hg (1025.8 mb)
[Sea-level pressure: 1030.4 mb]
Winds: from the E (80 degrees) at 3 MPH (3 knots; 1.5 m/s)
Visibility: 0.25 miles (0.40 km)
Ceiling: indefinite ceiling with vertical visibility of 200 feet AGL
Clouds: obscured sky
Weather: FZFG  (freezing fog)